createdAt,value
2022-09-16T00:01:32.737Z,79.71
2022-09-16T00:04:01.397Z,79.58
2022-09-16T00:06:31.281Z,78.95
2022-09-16T00:09:02.628Z,78.63
2022-09-16T00:11:35.623Z,78.52
2022-09-16T00:14:04.676Z,78.02
2022-09-16T00:16:33.404Z,77.43
2022-09-16T00:19:03.460Z,76.99
2022-09-16T00:21:33.134Z,76.13
2022-09-16T00:24:01.450Z,75.88
2022-09-16T00:26:30.114Z,75.28
2022-09-16T00:29:00.060Z,74.68
2022-09-16T00:31:28.838Z,74.49
2022-09-16T00:33:57.598Z,73.97
2022-09-16T00:36:26.198Z,74.27
2022-09-16T00:38:56.103Z,73.93
2022-09-16T00:41:28.049Z,73.77
2022-09-16T00:44:01.261Z,73.59
2022-09-16T00:46:36.826Z,73.72
2022-09-16T00:49:12.151Z,73.84
2022-09-16T00:51:43.580Z,73.89
2022-09-16T00:54:13.412Z,74.58
2022-09-16T00:56:45.110Z,74.71
2022-09-16T00:59:19.876Z,74.86
2022-09-16T01:01:50.298Z,75.40
2022-09-16T01:04:23.514Z,75.54
2022-09-16T01:06:53.193Z,75.70
2022-09-16T01:09:23.504Z,75.84
2022-09-16T01:11:52.191Z,75.97
2022-09-16T01:14:33.713Z,76.61
2022-09-16T01:17:12.341Z,76.86
2022-09-16T01:20:01.054Z,77.27
2022-09-16T01:22:47.624Z,77.26
2022-09-16T01:25:32.676Z,77.43
2022-09-16T01:28:28.265Z,77.96
2022-09-16T01:31:13.629Z,78.32
2022-09-16T01:33:53.821Z,78.63
2022-09-16T01:36:33.067Z,79.13
2022-09-16T01:39:10.893Z,79.47
2022-09-16T01:41:47.985Z,79.53
2022-09-16T01:44:27.175Z,79.97
2022-09-16T01:47:03.717Z,80.63
2022-09-16T01:49:44.203Z,80.31
2022-09-16T01:52:25.231Z,80.45
2022-09-16T01:55:02.776Z,80.46
2022-09-16T01:57:36.008Z,80.84
2022-09-16T02:00:08.762Z,81.07
2022-09-16T02:02:44.013Z,81.02
2022-09-16T02:05:18.145Z,81.17
2022-09-16T02:08:02.305Z,81.41
2022-09-16T02:10:34.006Z,81.55
2022-09-16T02:13:09.735Z,81.91
2022-09-16T02:15:43.643Z,81.92
2022-09-16T02:18:17.456Z,81.55
2022-09-16T02:20:50.244Z,81.85
2022-09-16T02:23:24.445Z,81.47
2022-09-16T02:25:56.695Z,81.72
2022-09-16T02:28:29.194Z,81.57
2022-09-16T02:31:02.315Z,81.38
2022-09-16T02:33:35.008Z,81.46
2022-09-16T02:36:06.249Z,82.05
2022-09-16T02:38:40.544Z,81.94
2022-09-16T02:41:14.819Z,82.24
2022-09-16T02:43:43.932Z,82.06
2022-09-16T02:46:20.364Z,82.56
2022-09-16T02:48:59.901Z,82.70
2022-09-16T02:51:39.357Z,82.67
2022-09-16T02:54:15.544Z,83.48
2022-09-16T02:56:44.772Z,83.47
2022-09-16T02:59:14.974Z,83.38
2022-09-16T03:01:46.702Z,83.64
2022-09-16T03:04:19.915Z,83.44
2022-09-16T03:06:49.406Z,83.63
2022-09-16T03:09:24.094Z,83.62
2022-09-16T03:12:15.691Z,83.54
2022-09-16T03:15:12.593Z,83.97
2022-09-16T03:18:05.484Z,83.76
2022-09-16T03:20:47.124Z,83.79
2022-09-16T03:23:26.247Z,84.04
2022-09-16T03:26:00.526Z,84.49
2022-09-16T03:28:39.314Z,84.35
2022-09-16T03:31:11.678Z,84.13
2022-09-16T03:33:48.337Z,84.29
2022-09-16T03:36:24.651Z,84.44
2022-09-16T03:38:55.282Z,84.96
2022-09-16T03:41:24.542Z,84.60
2022-09-16T03:44:01.594Z,85.04
2022-09-16T03:46:33.215Z,84.65
2022-09-16T03:49:02.074Z,84.50
2022-09-16T03:51:32.038Z,84.59
2022-09-16T03:54:00.575Z,84.77
2022-09-16T03:56:29.177Z,84.98
2022-09-16T03:58:58.537Z,84.96
2022-09-16T04:01:27.163Z,84.58
2022-09-16T04:03:55.859Z,84.34
2022-09-16T04:06:24.607Z,84.57
2022-09-16T04:08:54.811Z,84.52
2022-09-16T04:11:23.533Z,84.71
2022-09-16T04:13:52.205Z,84.82
2022-09-16T04:16:22.014Z,84.91
2022-09-16T04:18:50.470Z,85.25
2022-09-16T04:21:19.906Z,85.03
2022-09-16T04:23:48.723Z,84.93
2022-09-16T04:26:19.324Z,84.44
2022-09-16T04:28:48.226Z,84.61
2022-09-16T04:31:17.638Z,84.76
2022-09-16T04:33:46.345Z,84.59
2022-09-16T04:36:20.214Z,84.89
2022-09-16T04:38:50.391Z,85.06
2022-09-16T04:41:22.550Z,84.68
2022-09-16T04:43:53.998Z,84.88
2022-09-16T04:46:23.039Z,85.29
2022-09-16T04:48:53.791Z,85.37
2022-09-16T04:51:24.138Z,86.01
2022-09-16T04:53:52.857Z,86.07
2022-09-16T04:56:25.479Z,86.20
2022-09-16T04:58:56.146Z,86.30
2022-09-16T05:01:27.192Z,86.25
2022-09-16T05:03:58.638Z,86.93
2022-09-16T05:06:29.372Z,87.00
2022-09-16T05:08:58.508Z,86.89
2022-09-16T05:11:30.692Z,87.22
2022-09-16T05:14:04.533Z,87.24
2022-09-16T05:16:34.670Z,87.17
2022-09-16T05:19:05.175Z,86.54
2022-09-16T05:21:36.877Z,86.57
2022-09-16T05:24:09.004Z,86.72
2022-09-16T05:26:42.172Z,86.60
2022-09-16T05:29:13.854Z,86.36
2022-09-16T05:31:45.451Z,86.56
2022-09-16T05:34:16.120Z,85.96
2022-09-16T05:36:48.048Z,85.76
2022-09-16T05:39:25.920Z,85.64
2022-09-16T05:41:58.455Z,85.62
2022-09-16T05:44:27.741Z,85.39
2022-09-16T05:46:56.842Z,85.01
2022-09-16T05:49:25.892Z,84.60
2022-09-16T05:51:54.983Z,83.74
2022-09-16T05:54:25.643Z,83.21
2022-09-16T05:56:54.240Z,82.47
2022-09-16T05:59:24.914Z,81.51
2022-09-16T06:01:54.263Z,80.93
2022-09-16T06:04:22.853Z,80.18
2022-09-16T06:06:51.410Z,78.60
2022-09-16T06:09:22.460Z,77.56
2022-09-16T06:11:57.970Z,75.83
2022-09-16T06:14:32.223Z,74.16
2022-09-16T06:17:00.940Z,73.26
2022-09-16T06:19:29.559Z,72.37
2022-09-16T06:21:58.125Z,71.12
2022-09-16T06:24:26.730Z,70.94
2022-09-16T06:26:55.397Z,70.58
2022-09-16T06:29:24.034Z,69.69
2022-09-16T06:31:53.969Z,68.99
2022-09-16T06:34:22.449Z,68.31
2022-09-16T06:36:51.031Z,68.38
2022-09-16T06:39:19.750Z,67.97
2022-09-16T06:41:48.355Z,67.94
2022-09-16T06:44:16.870Z,67.96
2022-09-16T06:46:45.534Z,67.74
2022-09-16T06:49:15.486Z,67.43
2022-09-16T06:51:44.116Z,66.61
2022-09-16T06:54:13.083Z,66.10
2022-09-16T06:56:41.918Z,65.71
2022-09-16T06:59:11.614Z,65.57
2022-09-16T07:01:40.295Z,64.95
2022-09-16T07:04:13.507Z,64.64
2022-09-16T07:07:09.157Z,65.23
2022-09-16T07:09:32.837Z,64.06
2022-09-16T07:12:02.035Z,63.39
2022-09-16T07:14:32.972Z,63.42
2022-09-16T07:17:01.927Z,63.37
2022-09-16T07:19:30.586Z,62.73
2022-09-16T07:22:00.577Z,62.78
2022-09-16T07:24:29.172Z,62.93
2022-09-16T07:26:58.203Z,63.46
2022-09-16T07:29:27.714Z,64.40
2022-09-16T07:31:56.827Z,64.04
2022-09-16T07:34:25.286Z,63.38
2022-09-16T07:36:53.845Z,63.74
2022-09-16T07:39:25.931Z,62.39
2022-09-16T07:41:54.527Z,61.76
2022-09-16T07:44:23.022Z,61.25
2022-09-16T07:46:52.094Z,61.18
2022-09-16T07:49:20.948Z,60.75
2022-09-16T07:51:49.736Z,59.60
2022-09-16T07:54:21.715Z,59.36
2022-09-16T07:56:51.725Z,59.20
2022-09-16T07:59:22.309Z,59.20
2022-09-16T08:01:51.562Z,59.87
2022-09-16T08:04:21.045Z,59.82
2022-09-16T08:06:50.437Z,60.00
2022-09-16T08:09:39.721Z,60.17
2022-09-16T08:12:11.576Z,59.45
2022-09-16T08:14:40.376Z,59.21
2022-09-16T08:17:08.908Z,58.87
2022-09-16T08:19:39.462Z,58.82
2022-09-16T08:22:08.139Z,59.02
2022-09-16T08:24:36.979Z,58.67
2022-09-16T08:27:06.548Z,58.50
2022-09-16T08:29:36.151Z,58.69
2022-09-16T08:32:04.543Z,58.43
2022-09-16T08:34:33.088Z,58.86
2022-09-16T08:37:01.604Z,59.61
2022-09-16T08:39:30.196Z,59.72
2022-09-16T08:42:23.373Z,59.95
2022-09-16T08:45:04.411Z,59.95
2022-09-16T08:47:44.260Z,60.13
2022-09-16T08:50:18.646Z,59.45
2022-09-16T08:52:49.130Z,59.79
2022-09-16T08:55:23.763Z,59.70
2022-09-16T08:57:59.622Z,59.82
2022-09-16T09:00:30.799Z,59.44
2022-09-16T09:03:08.989Z,59.02
2022-09-16T09:05:46.697Z,59.20
2022-09-16T09:08:29.418Z,58.85
2022-09-16T09:11:04.594Z,58.07
2022-09-16T09:13:45.202Z,58.19
2022-09-16T09:16:26.505Z,57.23
2022-09-16T09:19:07.847Z,55.39
2022-09-16T09:21:45.369Z,54.37
2022-09-16T09:24:31.637Z,53.35
2022-09-16T09:27:06.179Z,52.84
2022-09-16T09:29:48.512Z,52.57
2022-09-16T09:32:29.072Z,52.55
2022-09-16T09:35:20.419Z,52.38
2022-09-16T09:38:36.399Z,53.12
2022-09-16T09:41:11.221Z,53.41
2022-09-16T09:43:46.805Z,53.46
2022-09-16T09:46:23.712Z,52.65
2022-09-16T09:48:59.363Z,51.95
2022-09-16T09:51:33.455Z,52.12
2022-09-16T09:54:11.448Z,51.36
2022-09-16T09:56:45.761Z,50.90
2022-09-16T09:59:29.805Z,51.01
2022-09-16T10:02:02.250Z,51.34
2022-09-16T10:04:38.490Z,51.26
2022-09-16T10:07:08.100Z,51.61
2022-09-16T10:09:37.617Z,52.45
2022-09-16T10:12:06.461Z,53.02
2022-09-16T10:14:37.775Z,53.74
2022-09-16T10:17:16.038Z,54.41
2022-09-16T10:19:55.784Z,54.59
2022-09-16T10:22:28.192Z,54.19
2022-09-16T10:24:59.133Z,53.93
2022-09-16T10:27:30.045Z,53.99
2022-09-16T10:30:12.587Z,54.68
2022-09-16T10:32:54.262Z,54.70
2022-09-16T10:35:27.334Z,54.73
2022-09-16T10:37:58.465Z,54.26
2022-09-16T10:40:28.278Z,54.24
2022-09-16T10:43:03.701Z,53.83
2022-09-16T10:45:35.913Z,54.36
2022-09-16T10:48:13.464Z,54.43
2022-09-16T10:50:56.016Z,54.92
2022-09-16T10:53:30.889Z,55.25
2022-09-16T10:56:02.090Z,54.95
2022-09-16T10:58:31.072Z,54.93
2022-09-16T11:01:23.801Z,55.17
2022-09-16T11:04:15.392Z,55.39
2022-09-16T11:07:02.568Z,55.08
2022-09-16T11:09:37.406Z,55.06
2022-09-16T11:12:29.376Z,55.51
2022-09-16T11:15:08.756Z,55.78
2022-09-16T11:17:45.835Z,55.90
2022-09-16T11:20:36.117Z,56.06
2022-09-16T11:23:15.286Z,56.47
2022-09-16T11:25:52.691Z,56.81
2022-09-16T11:28:55.361Z,56.51
2022-09-16T11:31:36.016Z,56.91
2022-09-16T11:34:17.689Z,57.06
2022-09-16T11:36:57.537Z,56.99
2022-09-16T11:39:42.427Z,57.48
2022-09-16T11:42:19.628Z,57.62
2022-09-16T11:44:53.795Z,57.63
2022-09-16T11:47:45.791Z,57.67
2022-09-16T11:50:30.606Z,57.54
2022-09-16T11:53:21.843Z,57.54
2022-09-16T11:55:58.869Z,57.58
2022-09-16T11:58:36.383Z,57.80
2022-09-16T12:01:14.839Z,58.42
2022-09-16T12:03:50.044Z,59.06
2022-09-16T12:06:24.393Z,59.46
2022-09-16T12:08:58.751Z,59.73
2022-09-16T12:11:34.954Z,59.68
2022-09-16T12:14:12.786Z,59.25
2022-09-16T12:16:46.861Z,59.35
2022-09-16T12:19:23.492Z,59.20
2022-09-16T12:21:58.344Z,58.95
2022-09-16T12:24:37.193Z,59.03
2022-09-16T12:27:15.440Z,58.87
2022-09-16T12:29:50.019Z,59.04
2022-09-16T12:32:32.516Z,59.67
2022-09-16T12:35:06.636Z,59.38
2022-09-16T12:37:41.837Z,59.34
2022-09-16T12:40:18.941Z,59.17
2022-09-16T12:43:12.321Z,58.62
2022-09-16T12:46:12.742Z,58.16
2022-09-16T12:49:11.194Z,57.86
2022-09-16T12:51:59.813Z,57.92
2022-09-16T12:55:06.613Z,57.67
2022-09-16T12:57:54.512Z,58.13
2022-09-16T13:00:27.692Z,58.66
2022-09-16T13:02:59.362Z,58.05
2022-09-16T13:05:33.330Z,58.37
2022-09-16T13:08:06.523Z,58.38
2022-09-16T13:10:55.780Z,58.06
2022-09-16T13:13:33.726Z,58.30
2022-09-16T13:16:07.167Z,58.45
2022-09-16T13:18:47.092Z,58.93
2022-09-16T13:21:26.233Z,59.58
2022-09-16T13:24:04.723Z,59.30
2022-09-16T13:26:41.966Z,59.53
2022-09-16T13:29:26.233Z,59.38
2022-09-16T13:34:31.288Z,59.38
2022-09-16T13:36:59.850Z,59.66
2022-09-16T13:39:33.829Z,59.05
2022-09-16T13:42:18.431Z,58.74
2022-09-16T13:44:47.344Z,59.23
2022-09-16T13:47:34.796Z,59.38
2022-09-16T13:50:14.304Z,59.54
2022-09-16T13:52:44.073Z,59.44
2022-09-16T13:55:22.732Z,59.47
2022-09-16T13:58:01.712Z,59.81
2022-09-16T14:00:37.761Z,60.22
2022-09-16T14:03:31.289Z,60.47
2022-09-16T14:06:28.265Z,60.82
2022-09-16T14:09:05.189Z,61.37
2022-09-16T14:11:47.206Z,61.28
2022-09-16T14:14:45.792Z,61.60
2022-09-16T14:17:18.485Z,61.84
2022-09-16T14:19:50.930Z,62.22
2022-09-16T14:22:23.651Z,62.23
2022-09-16T14:25:00.711Z,62.21
2022-09-16T14:27:39.952Z,61.94
2022-09-16T14:30:17.249Z,62.05
2022-09-16T14:32:47.770Z,62.10
2022-09-16T14:35:22.143Z,61.92
2022-09-16T14:37:56.587Z,61.59
2022-09-16T14:40:28.489Z,62.15
2022-09-16T14:43:01.834Z,62.71
2022-09-16T14:45:32.322Z,63.34
2022-09-16T14:48:04.347Z,63.55
2022-09-16T14:50:38.765Z,63.44
2022-09-16T14:53:20.588Z,64.68
2022-09-16T14:55:50.844Z,65.01
2022-09-16T14:58:21.183Z,64.90
2022-09-16T15:00:55.159Z,64.82
2022-09-16T15:03:30.024Z,65.15
2022-09-16T15:06:07.307Z,64.77
2022-09-16T15:08:46.973Z,64.66
2022-09-16T15:11:43.604Z,64.43
2022-09-16T15:14:09.453Z,64.80
2022-09-16T15:16:45.573Z,64.87
2022-09-16T15:19:21.591Z,64.80
2022-09-16T15:21:52.235Z,65.23
2022-09-16T15:24:25.293Z,65.04
2022-09-16T15:26:54.301Z,65.02
2022-09-16T15:29:32.209Z,65.60
2022-09-16T15:32:22.801Z,65.58
2022-09-16T15:35:06.430Z,65.58
2022-09-16T15:37:36.630Z,66.06
2022-09-16T15:40:24.423Z,66.28
2022-09-16T15:43:06.031Z,65.61
2022-09-16T15:45:34.872Z,65.19
2022-09-16T15:48:07.895Z,64.82
2022-09-16T15:50:42.874Z,64.81
2022-09-16T15:53:17.926Z,65.03
2022-09-16T15:55:56.974Z,65.01
2022-09-16T15:58:37.941Z,65.03
2022-09-16T16:01:13.538Z,65.56
2022-09-16T16:03:55.504Z,65.32
2022-09-16T16:06:49.935Z,64.84
2022-09-16T16:09:39.209Z,65.43
2022-09-16T16:12:12.397Z,67.04
2022-09-16T16:14:42.345Z,67.70
2022-09-16T16:17:14.765Z,68.04
2022-09-16T16:19:45.148Z,68.81
2022-09-16T16:22:14.813Z,69.00
2022-09-16T16:24:44.120Z,69.46
2022-09-16T16:27:14.102Z,70.47
2022-09-16T16:29:42.754Z,70.85
2022-09-16T16:32:13.555Z,71.61
2022-09-16T16:34:44.743Z,71.64
2022-09-16T16:37:33.773Z,71.76
2022-09-16T16:40:05.376Z,72.11
2022-09-16T16:42:36.165Z,72.95
2022-09-16T16:45:05.805Z,73.47
2022-09-16T16:47:35.082Z,73.87
2022-09-16T16:50:03.936Z,74.35
2022-09-16T16:52:32.497Z,74.32
2022-09-16T16:55:01.200Z,73.91
2022-09-16T16:57:29.947Z,73.67
2022-09-16T17:00:00.017Z,73.87
2022-09-16T17:02:28.802Z,74.51
2022-09-16T17:04:57.431Z,74.51
2022-09-16T17:07:27.711Z,74.71
2022-09-16T17:09:58.787Z,74.42
2022-09-16T17:12:27.617Z,73.83
2022-09-16T17:14:56.293Z,74.17
2022-09-16T17:17:30.720Z,74.73
2022-09-16T17:20:00.753Z,74.45
2022-09-16T17:22:29.293Z,74.39
2022-09-16T17:24:58.054Z,73.09
2022-09-16T17:27:28.034Z,73.15
2022-09-16T17:29:57.234Z,72.62
2022-09-16T17:32:27.262Z,72.92
2022-09-16T17:34:56.223Z,73.14
2022-09-16T17:37:24.765Z,73.01
2022-09-16T17:39:53.460Z,72.85
2022-09-16T17:42:22.030Z,73.28
2022-09-16T17:44:50.769Z,73.44
2022-09-16T17:47:19.409Z,73.89
2022-09-16T17:49:50.332Z,73.98
2022-09-16T17:52:19.097Z,73.83
2022-09-16T17:54:47.618Z,74.04
2022-09-16T17:57:16.966Z,74.15
2022-09-16T17:59:45.527Z,74.23
2022-09-16T18:02:14.226Z,74.42
2022-09-16T18:04:43.209Z,74.69
2022-09-16T18:07:13.990Z,74.87
2022-09-16T18:09:42.702Z,74.79
2022-09-16T18:12:11.919Z,75.25
2022-09-16T18:14:40.669Z,74.88
2022-09-16T18:17:09.398Z,75.36
2022-09-16T18:19:38.189Z,75.17
2022-09-16T18:22:06.888Z,75.18
2022-09-16T18:24:38.066Z,75.45
2022-09-16T18:27:06.970Z,75.78
2022-09-16T18:29:35.712Z,76.03
2022-09-16T18:32:04.465Z,76.30
2022-09-16T18:34:33.735Z,76.39
2022-09-16T18:37:02.876Z,77.03
2022-09-16T18:39:32.052Z,77.55
2022-09-16T18:42:02.198Z,78.00
2022-09-16T18:44:30.898Z,78.29
2022-09-16T18:47:00.098Z,78.82
2022-09-16T18:49:30.379Z,78.83
2022-09-16T18:51:59.456Z,79.45
2022-09-16T18:54:30.117Z,79.68
2022-09-16T18:57:00.421Z,79.89
2022-09-16T18:59:34.370Z,79.72
2022-09-16T19:02:04.091Z,79.62
2022-09-16T19:04:35.278Z,79.86
2022-09-16T19:07:08.265Z,79.73
2022-09-16T19:09:39.958Z,79.87
2022-09-16T19:12:12.071Z,79.69
2022-09-16T19:14:42.862Z,79.61
2022-09-16T19:17:12.375Z,79.41
2022-09-16T19:19:41.129Z,79.35
2022-09-16T19:22:10.656Z,78.86
2022-09-16T19:24:39.325Z,78.95
2022-09-16T19:27:08.337Z,79.10
2022-09-16T19:29:37.496Z,79.32
2022-09-16T19:32:07.762Z,79.43
2022-09-16T19:34:36.709Z,79.63
2022-09-16T19:37:05.500Z,79.96
2022-09-16T19:39:35.208Z,79.82
2022-09-16T19:42:03.966Z,80.22
2022-09-16T19:44:33.175Z,80.83
2022-09-16T19:47:02.626Z,81.07
2022-09-16T19:49:33.474Z,81.13
2022-09-16T19:52:02.539Z,81.69
2022-09-16T19:54:31.425Z,81.90
2022-09-16T19:57:00.181Z,82.30
2022-09-16T19:59:28.711Z,82.48
2022-09-16T20:01:59.821Z,82.80
2022-09-16T20:04:28.840Z,83.03
2022-09-16T20:06:59.010Z,84.00
2022-09-16T20:09:27.721Z,83.76
2022-09-16T20:11:56.470Z,84.31
2022-09-16T20:14:33.944Z,84.41
2022-09-16T20:17:02.661Z,84.56
2022-09-16T20:19:31.402Z,84.93
2022-09-16T20:22:01.774Z,85.11
2022-09-16T20:24:30.603Z,85.38
2022-09-16T20:26:59.165Z,84.98
2022-09-16T20:29:27.827Z,85.19
2022-09-16T20:31:56.412Z,85.34
2022-09-16T20:34:25.276Z,85.25
2022-09-16T20:36:53.909Z,85.43
2022-09-16T20:39:24.050Z,85.67
2022-09-16T20:41:52.971Z,85.65
2022-09-16T20:44:21.852Z,85.40
2022-09-16T20:46:50.604Z,85.49
2022-09-16T20:49:23.194Z,85.67
2022-09-16T20:51:52.765Z,85.92
2022-09-16T20:54:21.347Z,85.96
2022-09-16T20:56:52.392Z,86.15
2022-09-16T20:59:21.713Z,86.08
2022-09-16T21:01:50.821Z,85.93
2022-09-16T21:04:21.675Z,85.95
2022-09-16T21:06:50.658Z,86.24
2022-09-16T21:09:19.594Z,86.49
2022-09-16T21:11:52.095Z,86.82
2022-09-16T21:14:23.085Z,86.58
2022-09-16T21:16:53.186Z,86.78
2022-09-16T21:19:21.822Z,86.75
2022-09-16T21:21:50.351Z,87.08
2022-09-16T21:24:20.133Z,86.63
2022-09-16T21:26:48.971Z,86.81
2022-09-16T21:29:21.422Z,86.82
2022-09-16T21:31:51.808Z,86.88
2022-09-16T21:34:22.059Z,86.15
2022-09-16T21:36:53.577Z,85.97
2022-09-16T21:39:23.004Z,85.73
2022-09-16T21:41:51.870Z,85.51
2022-09-16T21:44:20.555Z,84.85
2022-09-16T21:46:52.119Z,84.99
2022-09-16T21:49:25.556Z,84.94
2022-09-16T21:51:55.987Z,84.60
2022-09-16T21:54:25.656Z,83.85
2022-09-16T21:56:54.452Z,83.47
2022-09-16T21:59:23.063Z,82.87
2022-09-16T22:01:53.349Z,82.32
2022-09-16T22:04:23.752Z,82.16
2022-09-16T22:06:55.898Z,81.68
2022-09-16T22:09:24.741Z,81.59
2022-09-16T22:11:53.412Z,81.45
2022-09-16T22:14:22.060Z,81.02
2022-09-16T22:16:50.634Z,81.29
2022-09-16T22:19:21.371Z,80.93
2022-09-16T22:21:52.492Z,80.62
2022-09-16T22:24:21.681Z,80.66
2022-09-16T22:26:52.566Z,80.53
2022-09-16T22:29:21.284Z,80.26
2022-09-16T22:31:49.936Z,79.99
2022-09-16T22:34:19.121Z,80.22
2022-09-16T22:36:49.061Z,79.86
2022-09-16T22:39:20.042Z,79.44
2022-09-16T22:41:48.980Z,78.14
2022-09-16T22:44:17.513Z,78.42
2022-09-16T22:46:48.136Z,78.16
2022-09-16T22:49:17.472Z,78.13
2022-09-16T22:51:46.437Z,77.45
2022-09-16T22:54:17.177Z,76.52
2022-09-16T22:56:46.003Z,77.24
2022-09-16T22:59:18.676Z,77.25
2022-09-16T23:01:48.595Z,77.05
2022-09-16T23:04:17.541Z,77.36
2022-09-16T23:06:47.361Z,77.71
2022-09-16T23:09:17.464Z,77.56
2022-09-16T23:11:46.336Z,77.56
2022-09-16T23:14:16.147Z,76.92
2022-09-16T23:16:44.695Z,76.49
2022-09-16T23:19:13.639Z,76.80
2022-09-16T23:21:43.074Z,76.03
2022-09-16T23:24:19.301Z,76.25
2022-09-16T23:26:49.413Z,76.46
2022-09-16T23:29:19.682Z,76.78
2022-09-16T23:31:48.349Z,76.80
2022-09-16T23:34:19.416Z,76.52
2022-09-16T23:36:48.503Z,76.75
2022-09-16T23:39:19.775Z,76.68
2022-09-16T23:41:49.587Z,77.01
2022-09-16T23:44:18.036Z,77.16
2022-09-16T23:46:46.763Z,77.19
2022-09-16T23:49:17.202Z,78.05
2022-09-16T23:51:45.909Z,78.12
2022-09-16T23:54:16.563Z,79.11
2022-09-16T23:56:47.100Z,78.49
2022-09-16T23:59:15.621Z,78.88
